sensor_id;sensor_type;location;lat;lon;timestamp;pressure;altitude;pressure_sealevel;temperature;humidity
62705;BME280;48767;50.754;8.772;2022-08-21T00:00:40;99395.94;;;16.60;nan
62705;BME280;48767;50.754;8.772;2022-08-21T00:03:09;99382.47;;;16.73;nan
62705;BME280;48767;50.754;8.772;2022-08-21T00:05:39;99383.13;;;16.75;nan
62705;BME280;48767;50.754;8.772;2022-08-21T00:08:06;99385.84;;;16.54;nan
62705;BME280;48767;50.754;8.772;2022-08-21T00:10:33;99383.44;;;16.30;nan
62705;BME280;48767;50.754;8.772;2022-08-21T00:13:00;99378.78;;;16.24;nan
62705;BME280;48767;50.754;8.772;2022-08-21T00:15:30;99378.69;;;16.32;nan
62705;BME280;48767;50.754;8.772;2022-08-21T00:17:58;99370.13;;;16.35;nan
62705;BME280;48767;50.754;8.772;2022-08-21T00:20:25;99367.31;;;16.43;nan
62705;BME280;48767;50.754;8.772;2022-08-21T00:22:52;99364.59;;;16.29;nan
62705;BME280;48767;50.754;8.772;2022-08-21T00:25:20;99366.75;;;16.12;nan
62705;BME280;48767;50.754;8.772;2022-08-21T00:27:47;99374.19;;;15.89;nan
62705;BME280;48767;50.754;8.772;2022-08-21T00:30:15;99365.03;;;15.90;nan
62705;BME280;48767;50.754;8.772;2022-08-21T00:32:43;99364.75;;;15.85;nan
62705;BME280;48767;50.754;8.772;2022-08-21T00:35:14;99369.06;;;15.80;nan
62705;BME280;48767;50.754;8.772;2022-08-21T00:37:41;99360.16;;;15.71;nan
62705;BME280;48767;50.754;8.772;2022-08-21T00:40:13;99363.44;;;15.67;nan
62705;BME280;48767;50.754;8.772;2022-08-21T00:42:40;99354.09;;;15.55;nan
62705;BME280;48767;50.754;8.772;2022-08-21T00:45:07;99365.25;;;15.45;nan
62705;BME280;48767;50.754;8.772;2022-08-21T00:47:33;99358.41;;;15.49;nan
62705;BME280;48767;50.754;8.772;2022-08-21T00:50:00;99369.13;;;15.28;nan
62705;BME280;48767;50.754;8.772;2022-08-21T00:52:29;99367.25;;;15.14;nan
62705;BME280;48767;50.754;8.772;2022-08-21T00:54:58;99366.22;;;15.15;nan
62705;BME280;48767;50.754;8.772;2022-08-21T00:57:26;99368.81;;;15.09;nan
62705;BME280;48767;50.754;8.772;2022-08-21T00:59:56;99368.63;;;14.96;nan
62705;BME280;48767;50.754;8.772;2022-08-21T01:02:24;99362.91;;;14.91;nan
62705;BME280;48767;50.754;8.772;2022-08-21T01:04:51;99373.47;;;15.00;nan
62705;BME280;48767;50.754;8.772;2022-08-21T01:07:18;99374.88;;;14.96;nan
62705;BME280;48767;50.754;8.772;2022-08-21T01:09:47;99371.63;;;15.01;nan
62705;BME280;48767;50.754;8.772;2022-08-21T01:12:14;99377.22;;;14.62;nan
62705;BME280;48767;50.754;8.772;2022-08-21T01:14:41;99375.75;;;14.74;nan
62705;BME280;48767;50.754;8.772;2022-08-21T01:17:10;99377.28;;;14.54;nan
62705;BME280;48767;50.754;8.772;2022-08-21T01:19:38;99372.72;;;14.55;nan
62705;BME280;48767;50.754;8.772;2022-08-21T01:22:06;99371.34;;;14.59;nan
62705;BME280;48767;50.754;8.772;2022-08-21T01:24:32;99381.44;;;14.42;nan
62705;BME280;48767;50.754;8.772;2022-08-21T01:26:59;99374.69;;;14.38;nan
62705;BME280;48767;50.754;8.772;2022-08-21T01:29:32;99374.06;;;14.28;nan
62705;BME280;48767;50.754;8.772;2022-08-21T01:32:04;99366.34;;;14.17;nan
62705;BME280;48767;50.754;8.772;2022-08-21T01:34:32;99370.78;;;14.10;nan
62705;BME280;48767;50.754;8.772;2022-08-21T01:36:59;99372.69;;;14.32;nan
62705;BME280;48767;50.754;8.772;2022-08-21T01:39:26;99379.22;;;14.15;nan
62705;BME280;48767;50.754;8.772;2022-08-21T01:41:53;99373.53;;;14.02;nan
62705;BME280;48767;50.754;8.772;2022-08-21T01:44:20;99372.41;;;13.97;nan
62705;BME280;48767;50.754;8.772;2022-08-21T01:46:47;99365.72;;;14.07;nan
62705;BME280;48767;50.754;8.772;2022-08-21T01:49:14;99364.03;;;14.06;nan
62705;BME280;48767;50.754;8.772;2022-08-21T01:51:41;99367.50;;;13.92;nan
62705;BME280;48767;50.754;8.772;2022-08-21T01:54:07;99367.41;;;14.08;nan
62705;BME280;48767;50.754;8.772;2022-08-21T01:56:37;99360.59;;;14.20;nan
62705;BME280;48767;50.754;8.772;2022-08-21T01:59:05;99356.56;;;14.08;nan
62705;BME280;48767;50.754;8.772;2022-08-21T02:01:32;99356.19;;;13.89;nan
62705;BME280;48767;50.754;8.772;2022-08-21T02:03:58;99361.75;;;13.95;nan
62705;BME280;48767;50.754;8.772;2022-08-21T02:06:25;99351.09;;;13.86;nan
62705;BME280;48767;50.754;8.772;2022-08-21T02:08:52;99352.38;;;13.67;nan
62705;BME280;48767;50.754;8.772;2022-08-21T02:11:19;99354.63;;;13.94;nan
62705;BME280;48767;50.754;8.772;2022-08-21T02:13:47;99355.41;;;13.72;nan
62705;BME280;48767;50.754;8.772;2022-08-21T02:16:13;99357.47;;;13.70;nan
62705;BME280;48767;50.754;8.772;2022-08-21T02:18:40;99357.16;;;13.57;nan
62705;BME280;48767;50.754;8.772;2022-08-21T02:21:07;99353.16;;;13.45;nan
62705;BME280;48767;50.754;8.772;2022-08-21T02:23:34;99356.72;;;13.46;nan
62705;BME280;48767;50.754;8.772;2022-08-21T02:26:02;99350.78;;;13.50;nan
62705;BME280;48767;50.754;8.772;2022-08-21T02:28:29;99354.91;;;13.38;nan
62705;BME280;48767;50.754;8.772;2022-08-21T02:30:57;99352.25;;;13.14;nan
62705;BME280;48767;50.754;8.772;2022-08-21T02:33:24;99358.34;;;13.08;nan
62705;BME280;48767;50.754;8.772;2022-08-21T02:35:51;99351.75;;;13.19;nan
62705;BME280;48767;50.754;8.772;2022-08-21T02:38:20;99352.28;;;13.06;nan
62705;BME280;48767;50.754;8.772;2022-08-21T02:40:49;99348.91;;;13.04;nan
62705;BME280;48767;50.754;8.772;2022-08-21T02:43:17;99349.88;;;12.95;nan
62705;BME280;48767;50.754;8.772;2022-08-21T02:45:44;99355.31;;;12.87;nan
62705;BME280;48767;50.754;8.772;2022-08-21T02:48:14;99351.63;;;12.96;nan
62705;BME280;48767;50.754;8.772;2022-08-21T02:50:44;99353.81;;;12.77;nan
62705;BME280;48767;50.754;8.772;2022-08-21T02:53:13;99353.31;;;12.81;nan
62705;BME280;48767;50.754;8.772;2022-08-21T02:55:42;99350.78;;;12.88;nan
62705;BME280;48767;50.754;8.772;2022-08-21T02:58:10;99346.56;;;12.77;nan
62705;BME280;48767;50.754;8.772;2022-08-21T03:00:37;99359.22;;;12.69;nan
62705;BME280;48767;50.754;8.772;2022-08-21T03:03:04;99351.81;;;12.63;nan
62705;BME280;48767;50.754;8.772;2022-08-21T03:05:34;99342.84;;;12.62;nan
62705;BME280;48767;50.754;8.772;2022-08-21T03:08:04;99352.66;;;12.55;nan
62705;BME280;48767;50.754;8.772;2022-08-21T03:10:32;99342.53;;;12.49;nan
62705;BME280;48767;50.754;8.772;2022-08-21T03:12:58;99340.81;;;12.48;nan
62705;BME280;48767;50.754;8.772;2022-08-21T03:15:25;99339.50;;;12.44;nan
62705;BME280;48767;50.754;8.772;2022-08-21T03:17:52;99348.56;;;12.27;nan
62705;BME280;48767;50.754;8.772;2022-08-21T03:20:21;99354.00;;;12.35;nan
62705;BME280;48767;50.754;8.772;2022-08-21T03:22:50;99339.81;;;12.41;nan
62705;BME280;48767;50.754;8.772;2022-08-21T03:25:17;99349.25;;;12.37;nan
62705;BME280;48767;50.754;8.772;2022-08-21T03:27:44;99352.31;;;12.18;nan
62705;BME280;48767;50.754;8.772;2022-08-21T03:30:11;99352.47;;;12.33;nan
62705;BME280;48767;50.754;8.772;2022-08-21T03:32:38;99353.31;;;12.25;nan
62705;BME280;48767;50.754;8.772;2022-08-21T03:35:07;99353.63;;;12.22;nan
62705;BME280;48767;50.754;8.772;2022-08-21T03:37:34;99352.31;;;12.18;nan
62705;BME280;48767;50.754;8.772;2022-08-21T03:40:03;99356.19;;;12.32;nan
62705;BME280;48767;50.754;8.772;2022-08-21T03:42:29;99359.06;;;12.30;nan
62705;BME280;48767;50.754;8.772;2022-08-21T03:44:56;99364.13;;;12.41;nan
62705;BME280;48767;50.754;8.772;2022-08-21T03:47:22;99360.75;;;12.47;nan
62705;BME280;48767;50.754;8.772;2022-08-21T03:49:49;99361.25;;;12.27;nan
62705;BME280;48767;50.754;8.772;2022-08-21T03:52:16;99365.78;;;12.02;nan
62705;BME280;48767;50.754;8.772;2022-08-21T03:54:42;99368.13;;;12.05;nan
62705;BME280;48767;50.754;8.772;2022-08-21T03:57:10;99370.47;;;11.92;nan
62705;BME280;48767;50.754;8.772;2022-08-21T03:59:37;99370.50;;;12.08;nan
62705;BME280;48767;50.754;8.772;2022-08-21T04:02:05;99368.75;;;11.91;nan
62705;BME280;48767;50.754;8.772;2022-08-21T04:04:32;99381.22;;;11.84;nan
62705;BME280;48767;50.754;8.772;2022-08-21T04:07:00;99379.03;;;11.88;nan
62705;BME280;48767;50.754;8.772;2022-08-21T04:09:27;99377.88;;;11.82;nan
62705;BME280;48767;50.754;8.772;2022-08-21T04:11:54;99381.19;;;11.68;nan
62705;BME280;48767;50.754;8.772;2022-08-21T04:14:22;99382.91;;;11.77;nan
62705;BME280;48767;50.754;8.772;2022-08-21T04:16:48;99382.56;;;11.80;nan
62705;BME280;48767;50.754;8.772;2022-08-21T04:19:15;99382.91;;;11.77;nan
62705;BME280;48767;50.754;8.772;2022-08-21T04:21:42;99403.03;;;11.57;nan
62705;BME280;48767;50.754;8.772;2022-08-21T04:24:09;99392.03;;;11.51;nan
62705;BME280;48767;50.754;8.772;2022-08-21T04:26:37;99400.72;;;11.70;nan
62705;BME280;48767;50.754;8.772;2022-08-21T04:29:05;99404.31;;;11.79;nan
62705;BME280;48767;50.754;8.772;2022-08-21T04:31:34;99401.88;;;11.60;nan
62705;BME280;48767;50.754;8.772;2022-08-21T04:34:02;99401.09;;;11.75;nan
62705;BME280;48767;50.754;8.772;2022-08-21T04:36:28;99402.09;;;11.66;nan
62705;BME280;48767;50.754;8.772;2022-08-21T04:38:55;99405.66;;;11.75;nan
62705;BME280;48767;50.754;8.772;2022-08-21T04:41:21;99413.50;;;11.60;nan
62705;BME280;48767;50.754;8.772;2022-08-21T04:43:48;99412.88;;;11.66;nan
62705;BME280;48767;50.754;8.772;2022-08-21T04:46:15;99416.91;;;11.70;nan
62705;BME280;48767;50.754;8.772;2022-08-21T04:48:43;99418.66;;;11.79;nan
62705;BME280;48767;50.754;8.772;2022-08-21T04:51:11;99414.53;;;12.01;nan
62705;BME280;48767;50.754;8.772;2022-08-21T04:53:41;99424.09;;;11.95;nan
62705;BME280;48767;50.754;8.772;2022-08-21T04:56:13;99429.19;;;12.06;nan
62705;BME280;48767;50.754;8.772;2022-08-21T04:58:41;99425.16;;;12.02;nan
62705;BME280;48767;50.754;8.772;2022-08-21T05:01:11;99424.16;;;12.11;nan
62705;BME280;48767;50.754;8.772;2022-08-21T05:03:39;99421.81;;;12.16;nan
62705;BME280;48767;50.754;8.772;2022-08-21T05:06:10;99427.19;;;12.08;nan
62705;BME280;48767;50.754;8.772;2022-08-21T05:08:39;99423.16;;;12.20;nan
62705;BME280;48767;50.754;8.772;2022-08-21T05:11:07;99418.16;;;12.33;nan
62705;BME280;48767;50.754;8.772;2022-08-21T05:13:34;99419.00;;;12.42;nan
62705;BME280;48767;50.754;8.772;2022-08-21T05:16:01;99422.03;;;12.39;nan
62705;BME280;48767;50.754;8.772;2022-08-21T05:18:28;99431.63;;;12.25;nan
62705;BME280;48767;50.754;8.772;2022-08-21T05:20:54;99428.94;;;12.33;nan
62705;BME280;48767;50.754;8.772;2022-08-21T05:23:23;99430.66;;;12.50;nan
62705;BME280;48767;50.754;8.772;2022-08-21T05:25:50;99425.44;;;12.73;nan
62705;BME280;48767;50.754;8.772;2022-08-21T05:28:17;99435.06;;;12.67;nan
62705;BME280;48767;50.754;8.772;2022-08-21T05:30:44;99445.53;;;12.86;nan
62705;BME280;48767;50.754;8.772;2022-08-21T05:33:11;99431.19;;;13.02;nan
62705;BME280;48767;50.754;8.772;2022-08-21T05:35:38;99438.47;;;13.17;nan
62705;BME280;48767;50.754;8.772;2022-08-21T05:38:05;99441.09;;;13.41;nan
62705;BME280;48767;50.754;8.772;2022-08-21T05:40:33;99434.28;;;13.69;nan
62705;BME280;48767;50.754;8.772;2022-08-21T05:42:59;99435.56;;;13.89;nan
62705;BME280;48767;50.754;8.772;2022-08-21T05:45:29;99434.94;;;14.10;nan
62705;BME280;48767;50.754;8.772;2022-08-21T05:47:56;99434.84;;;13.95;nan
62705;BME280;48767;50.754;8.772;2022-08-21T05:50:22;99432.03;;;14.19;nan
62705;BME280;48767;50.754;8.772;2022-08-21T05:52:49;99432.56;;;14.68;nan
62705;BME280;48767;50.754;8.772;2022-08-21T05:55:15;99430.56;;;15.07;nan
62705;BME280;48767;50.754;8.772;2022-08-21T05:57:43;99441.25;;;15.45;nan
62705;BME280;48767;50.754;8.772;2022-08-21T06:00:10;99432.16;;;15.82;nan
62705;BME280;48767;50.754;8.772;2022-08-21T06:02:37;99432.03;;;16.04;nan
62705;BME280;48767;50.754;8.772;2022-08-21T06:05:04;99422.94;;;16.12;nan
62705;BME280;48767;50.754;8.772;2022-08-21T06:07:31;99415.59;;;16.41;nan
62705;BME280;48767;50.754;8.772;2022-08-21T06:09:58;99424.44;;;16.64;nan
62705;BME280;48767;50.754;8.772;2022-08-21T06:12:24;99418.59;;;16.67;nan
62705;BME280;48767;50.754;8.772;2022-08-21T06:14:52;99414.59;;;16.84;nan
62705;BME280;48767;50.754;8.772;2022-08-21T06:17:19;99421.44;;;17.01;nan
62705;BME280;48767;50.754;8.772;2022-08-21T06:19:50;99418.41;;;16.90;nan
62705;BME280;48767;50.754;8.772;2022-08-21T06:22:17;99420.00;;;17.26;nan
62705;BME280;48767;50.754;8.772;2022-08-21T06:24:43;99416.50;;;17.60;nan
62705;BME280;48767;50.754;8.772;2022-08-21T06:27:10;99416.94;;;17.63;nan
62705;BME280;48767;50.754;8.772;2022-08-21T06:29:36;99415.84;;;17.92;nan
62705;BME280;48767;50.754;8.772;2022-08-21T06:32:05;99416.34;;;18.08;nan
62705;BME280;48767;50.754;8.772;2022-08-21T06:34:35;99410.66;;;18.10;nan
62705;BME280;48767;50.754;8.772;2022-08-21T06:37:03;99408.31;;;18.34;nan
62705;BME280;48767;50.754;8.772;2022-08-21T06:39:29;99404.72;;;18.34;nan
62705;BME280;48767;50.754;8.772;2022-08-21T06:41:56;99407.53;;;18.60;nan
62705;BME280;48767;50.754;8.772;2022-08-21T06:44:22;99401.50;;;19.03;nan
62705;BME280;48767;50.754;8.772;2022-08-21T06:46:49;99413.66;;;19.01;nan
62705;BME280;48767;50.754;8.772;2022-08-21T06:49:17;99404.47;;;19.34;nan
62705;BME280;48767;50.754;8.772;2022-08-21T06:51:43;99396.69;;;19.57;nan
62705;BME280;48767;50.754;8.772;2022-08-21T06:54:10;99398.34;;;19.58;nan
62705;BME280;48767;50.754;8.772;2022-08-21T06:56:36;99390.97;;;19.65;nan
62705;BME280;48767;50.754;8.772;2022-08-21T06:59:03;99397.63;;;19.89;nan
62705;BME280;48767;50.754;8.772;2022-08-21T07:01:29;99388.66;;;20.32;nan
62705;BME280;48767;50.754;8.772;2022-08-21T07:03:56;99387.41;;;20.28;nan
62705;BME280;48767;50.754;8.772;2022-08-21T07:06:24;99388.94;;;20.55;nan
62705;BME280;48767;50.754;8.772;2022-08-21T07:08:51;99374.88;;;20.89;nan
62705;BME280;48767;50.754;8.772;2022-08-21T07:11:20;99378.66;;;20.82;nan
62705;BME280;48767;50.754;8.772;2022-08-21T07:13:48;99377.88;;;20.75;nan
62705;BME280;48767;50.754;8.772;2022-08-21T07:16:16;99370.06;;;21.09;nan
62705;BME280;48767;50.754;8.772;2022-08-21T07:18:43;99372.50;;;21.17;nan
62705;BME280;48767;50.754;8.772;2022-08-21T07:21:09;99368.22;;;21.28;nan
62705;BME280;48767;50.754;8.772;2022-08-21T07:23:41;99367.84;;;21.67;nan
62705;BME280;48767;50.754;8.772;2022-08-21T07:26:08;99367.91;;;21.60;nan
62705;BME280;48767;50.754;8.772;2022-08-21T07:28:35;99366.09;;;22.08;nan
62705;BME280;48767;50.754;8.772;2022-08-21T07:31:02;99359.75;;;22.26;nan
62705;BME280;48767;50.754;8.772;2022-08-21T07:33:31;99357.13;;;21.83;nan
62705;BME280;48767;50.754;8.772;2022-08-21T07:35:58;99361.22;;;22.28;nan
62705;BME280;48767;50.754;8.772;2022-08-21T07:38:25;99355.59;;;22.05;nan
62705;BME280;48767;50.754;8.772;2022-08-21T07:40:55;99350.28;;;21.92;nan
62705;BME280;48767;50.754;8.772;2022-08-21T07:43:24;99347.44;;;21.81;nan
62705;BME280;48767;50.754;8.772;2022-08-21T07:45:51;99355.22;;;21.84;nan
62705;BME280;48767;50.754;8.772;2022-08-21T07:48:19;99347.16;;;22.36;nan
62705;BME280;48767;50.754;8.772;2022-08-21T07:50:45;99351.41;;;22.50;nan
62705;BME280;48767;50.754;8.772;2022-08-21T07:53:12;99341.88;;;22.94;nan
62705;BME280;48767;50.754;8.772;2022-08-21T07:55:38;99339.75;;;23.07;nan
62705;BME280;48767;50.754;8.772;2022-08-21T07:58:06;99345.97;;;23.03;nan
62705;BME280;48767;50.754;8.772;2022-08-21T08:00:33;99343.25;;;23.14;nan
62705;BME280;48767;50.754;8.772;2022-08-21T08:03:00;99347.47;;;23.52;nan
62705;BME280;48767;50.754;8.772;2022-08-21T08:05:29;99343.31;;;22.96;nan
62705;BME280;48767;50.754;8.772;2022-08-21T08:07:57;99345.38;;;23.12;nan
62705;BME280;48767;50.754;8.772;2022-08-21T08:10:24;99338.75;;;23.43;nan
62705;BME280;48767;50.754;8.772;2022-08-21T08:12:51;99349.53;;;23.03;nan
62705;BME280;48767;50.754;8.772;2022-08-21T08:15:24;99348.63;;;23.09;nan
62705;BME280;48767;50.754;8.772;2022-08-21T08:17:51;99339.56;;;23.67;nan
62705;BME280;48767;50.754;8.772;2022-08-21T08:20:20;99338.03;;;23.48;nan
62705;BME280;48767;50.754;8.772;2022-08-21T08:22:48;99338.38;;;23.63;nan
62705;BME280;48767;50.754;8.772;2022-08-21T08:25:16;99335.22;;;23.82;nan
62705;BME280;48767;50.754;8.772;2022-08-21T08:27:43;99335.25;;;23.94;nan
62705;BME280;48767;50.754;8.772;2022-08-21T08:30:11;99329.78;;;24.10;nan
62705;BME280;48767;50.754;8.772;2022-08-21T08:32:40;99335.97;;;24.29;nan
62705;BME280;48767;50.754;8.772;2022-08-21T08:35:07;99326.94;;;24.45;nan
62705;BME280;48767;50.754;8.772;2022-08-21T08:37:34;99326.75;;;24.51;nan
62705;BME280;48767;50.754;8.772;2022-08-21T08:40:03;99326.34;;;24.15;nan
62705;BME280;48767;50.754;8.772;2022-08-21T08:42:31;99314.75;;;24.85;nan
62705;BME280;48767;50.754;8.772;2022-08-21T08:45:03;99326.53;;;24.25;nan
62705;BME280;48767;50.754;8.772;2022-08-21T08:47:31;99313.66;;;24.86;nan
62705;BME280;48767;50.754;8.772;2022-08-21T08:50:03;99306.75;;;24.67;nan
62705;BME280;48767;50.754;8.772;2022-08-21T08:52:33;99302.16;;;24.73;nan
62705;BME280;48767;50.754;8.772;2022-08-21T08:55:03;99318.56;;;24.12;nan
62705;BME280;48767;50.754;8.772;2022-08-21T08:57:31;99303.25;;;25.21;nan
62705;BME280;48767;50.754;8.772;2022-08-21T09:00:00;99314.00;;;24.73;nan
62705;BME280;48767;50.754;8.772;2022-08-21T09:02:30;99312.78;;;25.14;nan
62705;BME280;48767;50.754;8.772;2022-08-21T09:05:00;99303.25;;;25.76;nan
62705;BME280;48767;50.754;8.772;2022-08-21T09:07:35;99303.69;;;24.97;nan
62705;BME280;48767;50.754;8.772;2022-08-21T09:10:11;99296.75;;;24.94;nan
62705;BME280;48767;50.754;8.772;2022-08-21T09:12:52;99301.75;;;23.85;nan
62705;BME280;48767;50.754;8.772;2022-08-21T09:15:28;99298.94;;;24.08;nan
62705;BME280;48767;50.754;8.772;2022-08-21T09:18:10;99281.34;;;25.48;nan
62705;BME280;48767;50.754;8.772;2022-08-21T09:20:48;99279.72;;;25.90;nan
62705;BME280;48767;50.754;8.772;2022-08-21T09:23:27;99277.94;;;26.00;nan
62705;BME280;48767;50.754;8.772;2022-08-21T09:26:07;99279.59;;;25.42;nan
62705;BME280;48767;50.754;8.772;2022-08-21T09:28:34;99281.97;;;25.93;nan
62705;BME280;48767;50.754;8.772;2022-08-21T09:31:03;99283.09;;;25.75;nan
62705;BME280;48767;50.754;8.772;2022-08-21T09:33:32;99293.19;;;25.27;nan
62705;BME280;48767;50.754;8.772;2022-08-21T09:35:59;99278.41;;;25.54;nan
62705;BME280;48767;50.754;8.772;2022-08-21T09:38:29;99288.28;;;25.72;nan
62705;BME280;48767;50.754;8.772;2022-08-21T09:41:00;99272.31;;;26.65;nan
62705;BME280;48767;50.754;8.772;2022-08-21T09:43:28;99275.13;;;25.95;nan
62705;BME280;48767;50.754;8.772;2022-08-21T09:46:04;99264.13;;;26.75;nan
62705;BME280;48767;50.754;8.772;2022-08-21T09:48:39;99260.25;;;26.76;nan
62705;BME280;48767;50.754;8.772;2022-08-21T09:51:10;99265.91;;;26.33;nan
62705;BME280;48767;50.754;8.772;2022-08-21T09:53:44;99257.91;;;27.21;nan
62705;BME280;48767;50.754;8.772;2022-08-21T09:56:33;99254.75;;;26.76;nan
62705;BME280;48767;50.754;8.772;2022-08-21T09:59:25;99253.44;;;26.30;nan
62705;BME280;48767;50.754;8.772;2022-08-21T10:01:53;99266.16;;;25.67;nan
62705;BME280;48767;50.754;8.772;2022-08-21T10:04:26;99261.19;;;26.07;nan
62705;BME280;48767;50.754;8.772;2022-08-21T10:07:05;99246.03;;;27.25;nan
62705;BME280;48767;50.754;8.772;2022-08-21T10:09:32;99256.97;;;25.83;nan
62705;BME280;48767;50.754;8.772;2022-08-21T10:12:22;99255.41;;;26.35;nan
62705;BME280;48767;50.754;8.772;2022-08-21T10:14:56;99234.19;;;27.30;nan
62705;BME280;48767;50.754;8.772;2022-08-21T10:17:29;99236.53;;;27.58;nan
62705;BME280;48767;50.754;8.772;2022-08-21T10:20:02;99234.50;;;27.90;nan
62705;BME280;48767;50.754;8.772;2022-08-21T10:22:38;99224.47;;;28.50;nan
62705;BME280;48767;50.754;8.772;2022-08-21T10:25:14;99224.91;;;27.51;nan
62705;BME280;48767;50.754;8.772;2022-08-21T10:27:53;99219.63;;;28.01;nan
62705;BME280;48767;50.754;8.772;2022-08-21T10:30:38;99220.03;;;28.79;nan
62705;BME280;48767;50.754;8.772;2022-08-21T10:33:16;99216.56;;;28.02;nan
62705;BME280;48767;50.754;8.772;2022-08-21T10:35:51;99216.03;;;27.54;nan
62705;BME280;48767;50.754;8.772;2022-08-21T10:38:46;99208.94;;;28.64;nan
62705;BME280;48767;50.754;8.772;2022-08-21T10:41:24;99213.31;;;29.40;nan
62705;BME280;48767;50.754;8.772;2022-08-21T10:44:12;99211.59;;;29.74;nan
62705;BME280;48767;50.754;8.772;2022-08-21T10:46:47;99206.19;;;30.03;nan
62705;BME280;48767;50.754;8.772;2022-08-21T10:49:25;99198.09;;;30.55;nan
62705;BME280;48767;50.754;8.772;2022-08-21T10:52:14;99207.50;;;29.42;nan
62705;BME280;48767;50.754;8.772;2022-08-21T10:54:50;99202.56;;;29.04;nan
62705;BME280;48767;50.754;8.772;2022-08-21T10:57:26;99205.13;;;27.84;nan
62705;BME280;48767;50.754;8.772;2022-08-21T10:59:57;99205.09;;;25.80;nan
62705;BME280;48767;50.754;8.772;2022-08-21T11:02:31;99187.66;;;27.78;nan
62705;BME280;48767;50.754;8.772;2022-08-21T11:05:03;99182.06;;;28.85;nan
62705;BME280;48767;50.754;8.772;2022-08-21T11:07:34;99173.47;;;28.56;nan
62705;BME280;48767;50.754;8.772;2022-08-21T11:10:08;99190.91;;;27.14;nan
62705;BME280;48767;50.754;8.772;2022-08-21T11:12:41;99192.25;;;27.53;nan
62705;BME280;48767;50.754;8.772;2022-08-21T11:15:29;99182.00;;;28.30;nan
62705;BME280;48767;50.754;8.772;2022-08-21T11:18:10;99185.53;;;28.00;nan
62705;BME280;48767;50.754;8.772;2022-08-21T11:20:42;99184.28;;;28.98;nan
62705;BME280;48767;50.754;8.772;2022-08-21T11:23:15;99175.88;;;29.38;nan
62705;BME280;48767;50.754;8.772;2022-08-21T11:25:49;99185.94;;;28.54;nan
62705;BME280;48767;50.754;8.772;2022-08-21T11:28:21;99179.50;;;28.23;nan
62705;BME280;48767;50.754;8.772;2022-08-21T11:30:59;99175.41;;;28.81;nan
62705;BME280;48767;50.754;8.772;2022-08-21T11:33:42;99171.47;;;28.22;nan
62705;BME280;48767;50.754;8.772;2022-08-21T11:36:15;99181.78;;;28.81;nan
62705;BME280;48767;50.754;8.772;2022-08-21T11:38:53;99174.25;;;28.37;nan
62705;BME280;48767;50.754;8.772;2022-08-21T11:41:28;99179.81;;;29.17;nan
62705;BME280;48767;50.754;8.772;2022-08-21T11:44:02;99177.03;;;29.22;nan
62705;BME280;48767;50.754;8.772;2022-08-21T11:46:37;99191.75;;;26.78;nan
62705;BME280;48767;50.754;8.772;2022-08-21T11:49:18;99179.41;;;27.83;nan
62705;BME280;48767;50.754;8.772;2022-08-21T11:51:51;99175.84;;;27.98;nan
62705;BME280;48767;50.754;8.772;2022-08-21T11:54:25;99170.13;;;28.64;nan
62705;BME280;48767;50.754;8.772;2022-08-21T11:56:58;99176.28;;;27.75;nan
62705;BME280;48767;50.754;8.772;2022-08-21T11:59:34;99170.97;;;28.45;nan
62705;BME280;48767;50.754;8.772;2022-08-21T12:02:06;99165.59;;;27.32;nan
62705;BME280;48767;50.754;8.772;2022-08-21T12:04:43;99155.44;;;28.99;nan
62705;BME280;48767;50.754;8.772;2022-08-21T12:07:12;99150.53;;;29.69;nan
62705;BME280;48767;50.754;8.772;2022-08-21T12:09:39;99145.56;;;30.87;nan
62705;BME280;48767;50.754;8.772;2022-08-21T12:12:11;99168.44;;;27.47;nan
62705;BME280;48767;50.754;8.772;2022-08-21T12:14:41;99160.84;;;26.23;nan
62705;BME280;48767;50.754;8.772;2022-08-21T12:17:17;99153.81;;;27.61;nan
62705;BME280;48767;50.754;8.772;2022-08-21T12:19:44;99140.50;;;28.55;nan
62705;BME280;48767;50.754;8.772;2022-08-21T12:22:13;99162.31;;;28.06;nan
62705;BME280;48767;50.754;8.772;2022-08-21T12:24:42;99162.53;;;27.95;nan
62705;BME280;48767;50.754;8.772;2022-08-21T12:27:21;99145.16;;;29.04;nan
62705;BME280;48767;50.754;8.772;2022-08-21T12:29:53;99143.22;;;28.95;nan
62705;BME280;48767;50.754;8.772;2022-08-21T12:32:25;99144.78;;;30.43;nan
62705;BME280;48767;50.754;8.772;2022-08-21T12:34:56;99136.31;;;30.24;nan
62705;BME280;48767;50.754;8.772;2022-08-21T12:37:34;99151.97;;;29.52;nan
62705;BME280;48767;50.754;8.772;2022-08-21T12:40:04;99137.81;;;30.45;nan
62705;BME280;48767;50.754;8.772;2022-08-21T12:42:41;99142.72;;;30.58;nan
62705;BME280;48767;50.754;8.772;2022-08-21T12:45:18;99141.50;;;29.19;nan
62705;BME280;48767;50.754;8.772;2022-08-21T12:47:48;99148.75;;;29.15;nan
62705;BME280;48767;50.754;8.772;2022-08-21T12:50:20;99139.88;;;30.35;nan
62705;BME280;48767;50.754;8.772;2022-08-21T12:52:53;99138.66;;;30.46;nan
62705;BME280;48767;50.754;8.772;2022-08-21T12:55:26;99127.47;;;31.13;nan
62705;BME280;48767;50.754;8.772;2022-08-21T12:57:55;99132.56;;;29.47;nan
62705;BME280;48767;50.754;8.772;2022-08-21T13:00:24;99131.44;;;30.06;nan
62705;BME280;48767;50.754;8.772;2022-08-21T13:02:52;99130.56;;;30.49;nan
62705;BME280;48767;50.754;8.772;2022-08-21T13:05:27;99116.28;;;31.18;nan
62705;BME280;48767;50.754;8.772;2022-08-21T13:07:54;99113.63;;;31.08;nan
62705;BME280;48767;50.754;8.772;2022-08-21T13:10:23;99114.69;;;29.73;nan
62705;BME280;48767;50.754;8.772;2022-08-21T13:12:51;99119.03;;;29.89;nan
62705;BME280;48767;50.754;8.772;2022-08-21T13:15:26;99110.13;;;30.69;nan
62705;BME280;48767;50.754;8.772;2022-08-21T13:17:53;99112.06;;;29.96;nan
62705;BME280;48767;50.754;8.772;2022-08-21T13:20:21;99110.16;;;31.21;nan
62705;BME280;48767;50.754;8.772;2022-08-21T13:22:48;99100.81;;;31.35;nan
62705;BME280;48767;50.754;8.772;2022-08-21T13:25:17;99114.44;;;30.13;nan
62705;BME280;48767;50.754;8.772;2022-08-21T13:27:55;99114.16;;;30.14;nan
62705;BME280;48767;50.754;8.772;2022-08-21T13:30:24;99105.09;;;29.45;nan
62705;BME280;48767;50.754;8.772;2022-08-21T13:32:52;99102.28;;;30.04;nan
62705;BME280;48767;50.754;8.772;2022-08-21T13:35:23;99101.28;;;30.62;nan